sensor_id;sensor_type;location;lat;lon;timestamp;P1;durP1;ratioP1;P2;durP2;ratioP2
81967;SDS011;71468;56.880;60.616;2023-07-29T00:01:43;13.80;;;4.60;;
81967;SDS011;71468;56.880;60.616;2023-07-29T00:04:11;8.25;;;5.13;;
81967;SDS011;71468;56.880;60.616;2023-07-29T00:06:37;10.73;;;4.40;;
81967;SDS011;71468;56.880;60.616;2023-07-29T00:09:04;8.18;;;4.80;;
81967;SDS011;71468;56.880;60.616;2023-07-29T00:11:30;10.05;;;5.07;;
81967;SDS011;71468;56.880;60.616;2023-07-29T00:14:00;7.15;;;4.00;;
81967;SDS011;71468;56.880;60.616;2023-07-29T00:16:27;8.15;;;4.75;;
81967;SDS011;71468;56.880;60.616;2023-07-29T00:18:54;9.60;;;5.00;;
81967;SDS011;71468;56.880;60.616;2023-07-29T00:21:20;12.40;;;5.35;;
81967;SDS011;71468;56.880;60.616;2023-07-29T00:23:47;10.73;;;5.22;;
81967;SDS011;71468;56.880;60.616;2023-07-29T00:26:14;12.52;;;5.57;;
81967;SDS011;71468;56.880;60.616;2023-07-29T00:28:40;7.93;;;4.55;;
81967;SDS011;71468;56.880;60.616;2023-07-29T00:31:07;9.43;;;5.20;;
81967;SDS011;71468;56.880;60.616;2023-07-29T00:33:34;26.25;;;5.40;;
81967;SDS011;71468;56.880;60.616;2023-07-29T00:36:00;10.18;;;5.60;;
81967;SDS011;71468;56.880;60.616;2023-07-29T00:38:29;11.63;;;4.60;;
81967;SDS011;71468;56.880;60.616;2023-07-29T00:40:56;11.40;;;4.47;;
81967;SDS011;71468;56.880;60.616;2023-07-29T00:43:24;9.63;;;5.03;;
81967;SDS011;71468;56.880;60.616;2023-07-29T00:45:51;15.20;;;4.70;;
81967;SDS011;71468;56.880;60.616;2023-07-29T00:48:17;7.88;;;4.43;;
81967;SDS011;71468;56.880;60.616;2023-07-29T00:50:44;11.45;;;5.07;;
81967;SDS011;71468;56.880;60.616;2023-07-29T00:53:11;7.70;;;4.50;;
81967;SDS011;71468;56.880;60.616;2023-07-29T00:55:38;8.55;;;4.50;;
81967;SDS011;71468;56.880;60.616;2023-07-29T00:58:04;10.70;;;4.65;;
81967;SDS011;71468;56.880;60.616;2023-07-29T01:00:32;9.45;;;4.50;;
81967;SDS011;71468;56.880;60.616;2023-07-29T01:02:59;5.97;;;4.90;;
81967;SDS011;71468;56.880;60.616;2023-07-29T01:05:27;7.47;;;4.55;;
81967;SDS011;71468;56.880;60.616;2023-07-29T01:07:59;10.40;;;4.35;;
81967;SDS011;71468;56.880;60.616;2023-07-29T01:13:26;16.38;;;5.38;;
81967;SDS011;71468;56.880;60.616;2023-07-29T01:15:58;13.48;;;5.20;;
81967;SDS011;71468;56.880;60.616;2023-07-29T01:18:30;10.60;;;5.60;;
81967;SDS011;71468;56.880;60.616;2023-07-29T01:20:59;10.13;;;5.00;;
81967;SDS011;71468;56.880;60.616;2023-07-29T01:23:30;10.95;;;5.43;;
81967;SDS011;71468;56.880;60.616;2023-07-29T01:25:58;8.85;;;4.95;;
81967;SDS011;71468;56.880;60.616;2023-07-29T01:28:24;13.20;;;5.30;;
81967;SDS011;71468;56.880;60.616;2023-07-29T01:30:52;7.35;;;5.03;;
81967;SDS011;71468;56.880;60.616;2023-07-29T01:33:40;11.90;;;5.10;;
81967;SDS011;71468;56.880;60.616;2023-07-29T01:36:13;9.60;;;4.60;;
81967;SDS011;71468;56.880;60.616;2023-07-29T01:38:43;13.43;;;5.68;;
81967;SDS011;71468;56.880;60.616;2023-07-29T01:41:10;10.55;;;5.03;;
81967;SDS011;71468;56.880;60.616;2023-07-29T01:43:37;10.88;;;5.05;;
81967;SDS011;71468;56.880;60.616;2023-07-29T01:46:10;7.37;;;5.07;;
81967;SDS011;71468;56.880;60.616;2023-07-29T01:48:38;12.02;;;5.40;;
81967;SDS011;71468;56.880;60.616;2023-07-29T01:51:05;9.05;;;5.25;;
81967;SDS011;71468;56.880;60.616;2023-07-29T01:53:32;9.38;;;5.30;;
81967;SDS011;71468;56.880;60.616;2023-07-29T01:55:59;11.60;;;5.80;;
81967;SDS011;71468;56.880;60.616;2023-07-29T01:58:26;12.73;;;5.75;;
81967;SDS011;71468;56.880;60.616;2023-07-29T02:00:52;9.10;;;4.70;;
81967;SDS011;71468;56.880;60.616;2023-07-29T02:03:19;10.90;;;5.22;;
81967;SDS011;71468;56.880;60.616;2023-07-29T02:05:46;15.23;;;5.47;;
81967;SDS011;71468;56.880;60.616;2023-07-29T02:08:13;7.50;;;5.15;;
81967;SDS011;71468;56.880;60.616;2023-07-29T02:10:40;11.13;;;5.68;;
81967;SDS011;71468;56.880;60.616;2023-07-29T02:13:08;8.88;;;5.22;;
81967;SDS011;71468;56.880;60.616;2023-07-29T02:15:34;10.38;;;5.07;;
81967;SDS011;71468;56.880;60.616;2023-07-29T02:18:01;10.55;;;4.68;;
81967;SDS011;71468;56.880;60.616;2023-07-29T02:20:29;11.18;;;5.68;;
81967;SDS011;71468;56.880;60.616;2023-07-29T02:22:56;10.02;;;5.45;;
81967;SDS011;71468;56.880;60.616;2023-07-29T02:25:22;12.18;;;6.28;;
81967;SDS011;71468;56.880;60.616;2023-07-29T02:27:49;10.88;;;5.40;;
81967;SDS011;71468;56.880;60.616;2023-07-29T02:30:16;8.30;;;4.60;;
81967;SDS011;71468;56.880;60.616;2023-07-29T02:32:42;11.50;;;5.90;;
81967;SDS011;71468;56.880;60.616;2023-07-29T02:35:09;12.38;;;5.25;;
81967;SDS011;71468;56.880;60.616;2023-07-29T02:37:36;9.38;;;4.68;;
81967;SDS011;71468;56.880;60.616;2023-07-29T02:40:02;11.98;;;5.28;;
81967;SDS011;71468;56.880;60.616;2023-07-29T02:42:30;9.63;;;5.22;;
81967;SDS011;71468;56.880;60.616;2023-07-29T02:44:56;10.77;;;4.93;;
81967;SDS011;71468;56.880;60.616;2023-07-29T02:47:23;12.00;;;5.40;;
81967;SDS011;71468;56.880;60.616;2023-07-29T02:49:50;13.23;;;4.97;;
81967;SDS011;71468;56.880;60.616;2023-07-29T02:52:16;8.95;;;4.60;;
81967;SDS011;71468;56.880;60.616;2023-07-29T02:54:43;7.65;;;4.60;;
81967;SDS011;71468;56.880;60.616;2023-07-29T02:57:09;10.18;;;5.03;;
81967;SDS011;71468;56.880;60.616;2023-07-29T02:59:36;7.95;;;4.75;;
81967;SDS011;71468;56.880;60.616;2023-07-29T03:02:02;8.77;;;4.38;;
81967;SDS011;71468;56.880;60.616;2023-07-29T03:04:29;8.35;;;4.72;;
81967;SDS011;71468;56.880;60.616;2023-07-29T03:06:56;7.72;;;4.53;;
81967;SDS011;71468;56.880;60.616;2023-07-29T03:09:23;7.82;;;4.07;;
81967;SDS011;71468;56.880;60.616;2023-07-29T03:11:49;9.93;;;4.60;;
81967;SDS011;71468;56.880;60.616;2023-07-29T03:14:18;7.72;;;4.45;;
81967;SDS011;71468;56.880;60.616;2023-07-29T03:16:45;8.02;;;4.82;;
81967;SDS011;71468;56.880;60.616;2023-07-29T03:19:12;9.50;;;4.88;;
81967;SDS011;71468;56.880;60.616;2023-07-29T03:21:39;6.10;;;4.30;;
81967;SDS011;71468;56.880;60.616;2023-07-29T03:24:05;8.73;;;4.45;;
81967;SDS011;71468;56.880;60.616;2023-07-29T03:26:33;8.45;;;4.85;;
81967;SDS011;71468;56.880;60.616;2023-07-29T03:28:59;10.05;;;4.03;;
81967;SDS011;71468;56.880;60.616;2023-07-29T03:31:26;7.47;;;4.18;;
81967;SDS011;71468;56.880;60.616;2023-07-29T03:33:52;8.73;;;4.43;;
81967;SDS011;71468;56.880;60.616;2023-07-29T03:36:20;5.93;;;4.53;;
81967;SDS011;71468;56.880;60.616;2023-07-29T03:38:47;9.98;;;5.07;;
81967;SDS011;71468;56.880;60.616;2023-07-29T03:41:13;9.93;;;4.35;;
81967;SDS011;71468;56.880;60.616;2023-07-29T03:43:40;8.77;;;4.65;;
81967;SDS011;71468;56.880;60.616;2023-07-29T03:46:06;8.55;;;4.68;;
81967;SDS011;71468;56.880;60.616;2023-07-29T03:48:33;8.27;;;4.68;;
81967;SDS011;71468;56.880;60.616;2023-07-29T03:51:00;15.18;;;5.32;;
81967;SDS011;71468;56.880;60.616;2023-07-29T03:53:26;6.78;;;4.43;;
81967;SDS011;71468;56.880;60.616;2023-07-29T03:55:53;5.82;;;4.13;;
81967;SDS011;71468;56.880;60.616;2023-07-29T03:58:20;10.10;;;4.30;;
81967;SDS011;71468;56.880;60.616;2023-07-29T04:00:46;8.63;;;4.65;;
81967;SDS011;71468;56.880;60.616;2023-07-29T04:03:13;8.57;;;4.55;;
81967;SDS011;71468;56.880;60.616;2023-07-29T04:05:40;8.35;;;4.57;;
81967;SDS011;71468;56.880;60.616;2023-07-29T04:08:07;8.05;;;4.45;;
81967;SDS011;71468;56.880;60.616;2023-07-29T04:10:33;6.63;;;4.35;;
81967;SDS011;71468;56.880;60.616;2023-07-29T04:13:01;7.45;;;4.45;;
81967;SDS011;71468;56.880;60.616;2023-07-29T04:15:27;8.30;;;4.90;;
81967;SDS011;71468;56.880;60.616;2023-07-29T04:17:54;7.30;;;4.25;;
81967;SDS011;71468;56.880;60.616;2023-07-29T04:20:21;11.93;;;4.63;;
81967;SDS011;71468;56.880;60.616;2023-07-29T04:22:47;5.47;;;4.30;;
81967;SDS011;71468;56.880;60.616;2023-07-29T04:25:14;6.28;;;4.28;;
81967;SDS011;71468;56.880;60.616;2023-07-29T04:27:41;6.93;;;4.30;;
81967;SDS011;71468;56.880;60.616;2023-07-29T04:30:07;5.78;;;4.53;;
81967;SDS011;71468;56.880;60.616;2023-07-29T04:32:34;6.18;;;4.65;;
81967;SDS011;71468;56.880;60.616;2023-07-29T04:35:01;9.13;;;4.13;;
81967;SDS011;71468;56.880;60.616;2023-07-29T04:37:28;6.65;;;4.47;;
81967;SDS011;71468;56.880;60.616;2023-07-29T04:39:54;5.95;;;3.97;;
81967;SDS011;71468;56.880;60.616;2023-07-29T04:42:21;7.10;;;4.28;;
81967;SDS011;71468;56.880;60.616;2023-07-29T04:44:49;6.65;;;4.20;;
81967;SDS011;71468;56.880;60.616;2023-07-29T04:47:16;7.15;;;4.60;;
81967;SDS011;71468;56.880;60.616;2023-07-29T04:49:42;9.00;;;4.85;;
81967;SDS011;71468;56.880;60.616;2023-07-29T04:52:10;6.95;;;4.55;;
81967;SDS011;71468;56.880;60.616;2023-07-29T04:54:36;6.28;;;4.20;;
81967;SDS011;71468;56.880;60.616;2023-07-29T04:57:03;6.30;;;4.35;;
81967;SDS011;71468;56.880;60.616;2023-07-29T04:59:30;6.38;;;4.40;;
81967;SDS011;71468;56.880;60.616;2023-07-29T05:01:56;7.43;;;4.80;;
81967;SDS011;71468;56.880;60.616;2023-07-29T05:04:23;4.68;;;3.92;;
81967;SDS011;71468;56.880;60.616;2023-07-29T05:06:49;5.80;;;4.22;;
81967;SDS011;71468;56.880;60.616;2023-07-29T05:09:17;6.75;;;4.63;;
81967;SDS011;71468;56.880;60.616;2023-07-29T05:11:44;7.47;;;4.20;;
81967;SDS011;71468;56.880;60.616;2023-07-29T05:14:15;5.90;;;4.20;;
81967;SDS011;71468;56.880;60.616;2023-07-29T05:16:43;5.30;;;4.55;;
81967;SDS011;71468;56.880;60.616;2023-07-29T05:19:10;6.68;;;4.38;;
81967;SDS011;71468;56.880;60.616;2023-07-29T05:21:36;5.25;;;4.05;;
81967;SDS011;71468;56.880;60.616;2023-07-29T05:24:04;6.10;;;4.38;;
81967;SDS011;71468;56.880;60.616;2023-07-29T05:26:31;6.53;;;4.57;;
81967;SDS011;71468;56.880;60.616;2023-07-29T05:28:58;6.50;;;4.47;;
81967;SDS011;71468;56.880;60.616;2023-07-29T05:31:24;9.23;;;4.78;;
81967;SDS011;71468;56.880;60.616;2023-07-29T05:33:51;7.15;;;5.03;;
81967;SDS011;71468;56.880;60.616;2023-07-29T05:36:18;7.28;;;5.30;;
81967;SDS011;71468;56.880;60.616;2023-07-29T05:38:45;5.03;;;4.53;;
81967;SDS011;71468;56.880;60.616;2023-07-29T05:41:11;8.32;;;5.13;;
81967;SDS011;71468;56.880;60.616;2023-07-29T05:43:38;10.20;;;4.97;;
81967;SDS011;71468;56.880;60.616;2023-07-29T05:46:05;6.50;;;4.95;;
81967;SDS011;71468;56.880;60.616;2023-07-29T05:48:32;6.18;;;4.65;;
81967;SDS011;71468;56.880;60.616;2023-07-29T05:50:58;7.32;;;4.45;;
81967;SDS011;71468;56.880;60.616;2023-07-29T05:53:25;7.25;;;4.82;;
81967;SDS011;71468;56.880;60.616;2023-07-29T05:55:52;7.20;;;5.25;;
81967;SDS011;71468;56.880;60.616;2023-07-29T05:58:19;6.53;;;5.20;;
81967;SDS011;71468;56.880;60.616;2023-07-29T06:00:45;8.02;;;5.25;;
81967;SDS011;71468;56.880;60.616;2023-07-29T06:03:12;8.68;;;5.32;;
81967;SDS011;71468;56.880;60.616;2023-07-29T06:05:39;6.97;;;5.40;;
81967;SDS011;71468;56.880;60.616;2023-07-29T06:08:06;7.18;;;5.50;;
81967;SDS011;71468;56.880;60.616;2023-07-29T06:10:34;7.57;;;5.25;;
81967;SDS011;71468;56.880;60.616;2023-07-29T06:13:01;8.95;;;5.57;;
81967;SDS011;71468;56.880;60.616;2023-07-29T06:15:27;9.52;;;5.18;;
81967;SDS011;71468;56.880;60.616;2023-07-29T06:17:54;7.95;;;5.28;;
81967;SDS011;71468;56.880;60.616;2023-07-29T06:20:20;6.30;;;5.43;;
81967;SDS011;71468;56.880;60.616;2023-07-29T06:22:47;7.55;;;5.22;;
81967;SDS011;71468;56.880;60.616;2023-07-29T06:25:13;7.63;;;5.60;;
81967;SDS011;71468;56.880;60.616;2023-07-29T06:27:40;8.25;;;5.68;;
81967;SDS011;71468;56.880;60.616;2023-07-29T06:30:06;8.40;;;6.20;;
81967;SDS011;71468;56.880;60.616;2023-07-29T06:32:34;7.60;;;5.97;;
81967;SDS011;71468;56.880;60.616;2023-07-29T06:35:00;9.40;;;6.13;;
81967;SDS011;71468;56.880;60.616;2023-07-29T06:37:27;10.20;;;6.07;;
81967;SDS011;71468;56.880;60.616;2023-07-29T06:39:54;10.52;;;6.85;;
81967;SDS011;71468;56.880;60.616;2023-07-29T06:42:20;8.50;;;6.45;;
81967;SDS011;71468;56.880;60.616;2023-07-29T06:44:47;9.55;;;6.72;;
81967;SDS011;71468;56.880;60.616;2023-07-29T06:47:14;9.05;;;6.95;;
81967;SDS011;71468;56.880;60.616;2023-07-29T06:49:40;9.43;;;7.65;;
81967;SDS011;71468;56.880;60.616;2023-07-29T06:52:07;9.38;;;7.00;;
81967;SDS011;71468;56.880;60.616;2023-07-29T06:54:33;9.18;;;6.50;;
81967;SDS011;71468;56.880;60.616;2023-07-29T06:57:00;11.93;;;7.07;;
81967;SDS011;71468;56.880;60.616;2023-07-29T06:59:27;11.77;;;7.00;;
81967;SDS011;71468;56.880;60.616;2023-07-29T07:01:53;9.98;;;7.50;;
81967;SDS011;71468;56.880;60.616;2023-07-29T07:04:20;9.05;;;6.25;;
81967;SDS011;71468;56.880;60.616;2023-07-29T07:06:47;11.63;;;6.90;;
81967;SDS011;71468;56.880;60.616;2023-07-29T07:09:13;9.52;;;6.72;;
81967;SDS011;71468;56.880;60.616;2023-07-29T07:11:39;11.93;;;6.75;;
81967;SDS011;71468;56.880;60.616;2023-07-29T07:14:06;8.73;;;6.65;;
81967;SDS011;71468;56.880;60.616;2023-07-29T07:16:32;11.65;;;7.28;;
81967;SDS011;71468;56.880;60.616;2023-07-29T07:18:59;10.00;;;7.95;;
81967;SDS011;71468;56.880;60.616;2023-07-29T07:21:25;10.60;;;6.72;;
81967;SDS011;71468;56.880;60.616;2023-07-29T07:23:52;14.02;;;8.52;;
81967;SDS011;71468;56.880;60.616;2023-07-29T07:26:19;14.32;;;8.43;;
81967;SDS011;71468;56.880;60.616;2023-07-29T07:28:45;13.70;;;8.05;;
81967;SDS011;71468;56.880;60.616;2023-07-29T07:31:12;11.52;;;7.65;;
81967;SDS011;71468;56.880;60.616;2023-07-29T07:33:38;11.30;;;8.52;;
81967;SDS011;71468;56.880;60.616;2023-07-29T07:36:05;9.35;;;7.50;;
81967;SDS011;71468;56.880;60.616;2023-07-29T07:38:31;11.50;;;7.85;;
81967;SDS011;71468;56.880;60.616;2023-07-29T07:40:58;11.50;;;8.18;;
81967;SDS011;71468;56.880;60.616;2023-07-29T07:43:24;13.02;;;8.27;;
81967;SDS011;71468;56.880;60.616;2023-07-29T07:45:51;9.65;;;8.10;;
81967;SDS011;71468;56.880;60.616;2023-07-29T07:48:24;13.85;;;8.68;;
81967;SDS011;71468;56.880;60.616;2023-07-29T07:50:51;11.13;;;7.70;;
81967;SDS011;71468;56.880;60.616;2023-07-29T07:53:17;10.98;;;8.02;;
81967;SDS011;71468;56.880;60.616;2023-07-29T07:55:46;10.13;;;7.75;;
81967;SDS011;71468;56.880;60.616;2023-07-29T07:58:13;10.75;;;8.90;;
81967;SDS011;71468;56.880;60.616;2023-07-29T08:00:39;11.75;;;8.88;;
81967;SDS011;71468;56.880;60.616;2023-07-29T08:03:06;12.32;;;8.90;;
81967;SDS011;71468;56.880;60.616;2023-07-29T08:05:32;11.75;;;8.55;;
81967;SDS011;71468;56.880;60.616;2023-07-29T08:07:58;13.52;;;8.95;;
81967;SDS011;71468;56.880;60.616;2023-07-29T08:10:25;12.95;;;9.23;;
81967;SDS011;71468;56.880;60.616;2023-07-29T08:12:52;11.52;;;8.82;;
81967;SDS011;71468;56.880;60.616;2023-07-29T08:15:18;13.63;;;10.15;;
81967;SDS011;71468;56.880;60.616;2023-07-29T08:17:45;12.10;;;9.95;;
81967;SDS011;71468;56.880;60.616;2023-07-29T08:20:12;15.25;;;9.50;;
81967;SDS011;71468;56.880;60.616;2023-07-29T08:22:38;11.73;;;9.77;;
81967;SDS011;71468;56.880;60.616;2023-07-29T08:25:05;14.18;;;9.82;;
81967;SDS011;71468;56.880;60.616;2023-07-29T08:27:33;11.98;;;9.32;;
81967;SDS011;71468;56.880;60.616;2023-07-29T08:30:00;12.68;;;9.73;;
81967;SDS011;71468;56.880;60.616;2023-07-29T08:32:27;13.48;;;9.95;;
81967;SDS011;71468;56.880;60.616;2023-07-29T08:34:53;12.68;;;9.63;;
81967;SDS011;71468;56.880;60.616;2023-07-29T08:37:20;12.68;;;9.73;;
81967;SDS011;71468;56.880;60.616;2023-07-29T08:39:47;17.67;;;9.77;;
81967;SDS011;71468;56.880;60.616;2023-07-29T08:42:13;13.63;;;9.75;;
81967;SDS011;71468;56.880;60.616;2023-07-29T08:44:43;8.90;;;8.00;;
81967;SDS011;71468;56.880;60.616;2023-07-29T08:47:10;9.82;;;7.47;;
81967;SDS011;71468;56.880;60.616;2023-07-29T08:49:39;10.43;;;7.43;;
81967;SDS011;71468;56.880;60.616;2023-07-29T08:52:06;7.88;;;6.97;;
81967;SDS011;71468;56.880;60.616;2023-07-29T08:54:34;7.93;;;7.00;;
81967;SDS011;71468;56.880;60.616;2023-07-29T08:57:01;10.35;;;7.50;;
81967;SDS011;71468;56.880;60.616;2023-07-29T08:59:28;9.27;;;7.55;;
81967;SDS011;71468;56.880;60.616;2023-07-29T09:01:55;10.18;;;7.82;;
81967;SDS011;71468;56.880;60.616;2023-07-29T09:04:23;11.02;;;8.27;;
81967;SDS011;71468;56.880;60.616;2023-07-29T09:06:51;9.05;;;7.97;;
81967;SDS011;71468;56.880;60.616;2023-07-29T09:09:17;11.65;;;8.65;;
81967;SDS011;71468;56.880;60.616;2023-07-29T09:11:44;9.52;;;6.97;;
81967;SDS011;71468;56.880;60.616;2023-07-29T09:14:11;8.48;;;6.70;;
81967;SDS011;71468;56.880;60.616;2023-07-29T09:16:38;6.72;;;6.13;;
81967;SDS011;71468;56.880;60.616;2023-07-29T09:19:04;6.90;;;6.20;;
81967;SDS011;71468;56.880;60.616;2023-07-29T09:21:31;7.47;;;6.00;;
81967;SDS011;71468;56.880;60.616;2023-07-29T09:24:02;6.50;;;5.63;;
81967;SDS011;71468;56.880;60.616;2023-07-29T09:26:30;6.18;;;5.57;;
81967;SDS011;71468;56.880;60.616;2023-07-29T09:28:58;6.65;;;5.95;;
81967;SDS011;71468;56.880;60.616;2023-07-29T09:31:25;6.10;;;5.60;;
81967;SDS011;71468;56.880;60.616;2023-07-29T09:33:56;5.68;;;5.18;;
81967;SDS011;71468;56.880;60.616;2023-07-29T09:36:24;6.35;;;5.55;;
81967;SDS011;71468;56.880;60.616;2023-07-29T09:38:52;8.35;;;5.80;;
81967;SDS011;71468;56.880;60.616;2023-07-29T09:41:22;7.63;;;6.93;;
81967;SDS011;71468;56.880;60.616;2023-07-29T09:43:57;7.70;;;6.90;;
81967;SDS011;71468;56.880;60.616;2023-07-29T09:46:24;8.77;;;7.85;;
81967;SDS011;71468;56.880;60.616;2023-07-29T09:48:53;8.20;;;7.40;;
81967;SDS011;71468;56.880;60.616;2023-07-29T09:51:23;9.82;;;7.97;;
81967;SDS011;71468;56.880;60.616;2023-07-29T09:53:50;8.68;;;7.57;;
81967;SDS011;71468;56.880;60.616;2023-07-29T09:56:24;7.88;;;7.20;;
81967;SDS011;71468;56.880;60.616;2023-07-29T09:58:52;8.48;;;7.35;;
81967;SDS011;71468;56.880;60.616;2023-07-29T10:01:18;7.80;;;7.10;;
81967;SDS011;71468;56.880;60.616;2023-07-29T10:03:45;7.55;;;6.85;;
81967;SDS011;71468;56.880;60.616;2023-07-29T10:06:12;9.70;;;6.78;;
81967;SDS011;71468;56.880;60.616;2023-07-29T10:08:41;6.95;;;6.35;;
81967;SDS011;71468;56.880;60.616;2023-07-29T10:11:09;6.75;;;6.05;;
81967;SDS011;71468;56.880;60.616;2023-07-29T10:13:36;7.18;;;6.47;;
81967;SDS011;71468;56.880;60.616;2023-07-29T10:16:03;7.68;;;6.90;;
81967;SDS011;71468;56.880;60.616;2023-07-29T10:18:31;6.90;;;6.20;;
81967;SDS011;71468;56.880;60.616;2023-07-29T10:20:58;7.10;;;6.38;;
81967;SDS011;71468;56.880;60.616;2023-07-29T10:23:27;7.30;;;6.60;;
81967;SDS011;71468;56.880;60.616;2023-07-29T10:26:04;6.85;;;6.20;;
81967;SDS011;71468;56.880;60.616;2023-07-29T10:28:32;8.55;;;6.07;;
81967;SDS011;71468;56.880;60.616;2023-07-29T10:31:00;7.20;;;6.22;;
81967;SDS011;71468;56.880;60.616;2023-07-29T10:33:28;8.50;;;7.60;;
81967;SDS011;71468;56.880;60.616;2023-07-29T10:35:57;9.15;;;7.53;;
81967;SDS011;71468;56.880;60.616;2023-07-29T10:38:24;8.30;;;7.28;;
81967;SDS011;71468;56.880;60.616;2023-07-29T10:40:55;8.93;;;8.02;;
81967;SDS011;71468;56.880;60.616;2023-07-29T10:43:33;7.03;;;6.32;;
81967;SDS011;71468;56.880;60.616;2023-07-29T10:46:15;7.00;;;6.28;;
81967;SDS011;71468;56.880;60.616;2023-07-29T10:48:52;7.28;;;6.57;;
81967;SDS011;71468;56.880;60.616;2023-07-29T10:51:24;9.05;;;7.10;;
81967;SDS011;71468;56.880;60.616;2023-07-29T10:53:54;10.10;;;6.35;;
81967;SDS011;71468;56.880;60.616;2023-07-29T10:56:31;7.60;;;6.40;;
81967;SDS011;71468;56.880;60.616;2023-07-29T10:59:23;9.13;;;6.07;;
81967;SDS011;71468;56.880;60.616;2023-07-29T11:09:41;7.38;;;6.57;;
81967;SDS011;71468;56.880;60.616;2023-07-29T11:15:01;13.02;;;7.45;;
81967;SDS011;71468;56.880;60.616;2023-07-29T11:17:30;8.80;;;7.30;;
81967;SDS011;71468;56.880;60.616;2023-07-29T11:20:00;9.25;;;7.13;;
81967;SDS011;71468;56.880;60.616;2023-07-29T11:22:29;8.55;;;7.50;;
81967;SDS011;71468;56.880;60.616;2023-07-29T11:24:56;9.38;;;7.57;;
81967;SDS011;71468;56.880;60.616;2023-07-29T11:27:22;8.65;;;7.72;;
81967;SDS011;71468;56.880;60.616;2023-07-29T11:29:49;10.82;;;8.15;;
81967;SDS011;71468;56.880;60.616;2023-07-29T11:32:16;8.95;;;7.50;;
81967;SDS011;71468;56.880;60.616;2023-07-29T11:34:43;8.95;;;6.93;;
81967;SDS011;71468;56.880;60.616;2023-07-29T11:37:10;9.25;;;7.55;;
81967;SDS011;71468;56.880;60.616;2023-07-29T11:39:40;8.80;;;7.90;;
81967;SDS011;71468;56.880;60.616;2023-07-29T11:42:13;9.60;;;8.15;;
81967;SDS011;71468;56.880;60.616;2023-07-29T11:44:41;9.65;;;8.73;;
81967;SDS011;71468;56.880;60.616;2023-07-29T11:47:08;8.40;;;7.60;;
81967;SDS011;71468;56.880;60.616;2023-07-29T11:49:39;8.57;;;7.30;;
81967;SDS011;71468;56.880;60.616;2023-07-29T11:52:06;9.10;;;7.35;;
81967;SDS011;71468;56.880;60.616;2023-07-29T11:54:37;8.02;;;6.80;;
81967;SDS011;71468;56.880;60.616;2023-07-29T11:57:08;8.25;;;6.38;;
81967;SDS011;71468;56.880;60.616;2023-07-29T11:59:35;7.07;;;6.05;;
81967;SDS011;71468;56.880;60.616;2023-07-29T12:02:06;7.18;;;6.15;;
81967;SDS011;71468;56.880;60.616;2023-07-29T12:04:39;7.10;;;6.40;;
81967;SDS011;71468;56.880;60.616;2023-07-29T12:07:06;8.90;;;7.30;;
81967;SDS011;71468;56.880;60.616;2023-07-29T12:09:34;7.70;;;6.78;;
81967;SDS011;71468;56.880;60.616;2023-07-29T12:12:04;8.43;;;6.68;;
81967;SDS011;71468;56.880;60.616;2023-07-29T12:14:31;7.55;;;6.75;;
81967;SDS011;71468;56.880;60.616;2023-07-29T12:17:01;8.05;;;7.05;;
81967;SDS011;71468;56.880;60.616;2023-07-29T12:19:39;7.60;;;6.85;;
81967;SDS011;71468;56.880;60.616;2023-07-29T12:22:06;8.35;;;7.53;;
81967;SDS011;71468;56.880;60.616;2023-07-29T12:24:38;8.27;;;7.05;;
81967;SDS011;71468;56.880;60.616;2023-07-29T12:27:10;7.43;;;6.72;;
81967;SDS011;71468;56.880;60.616;2023-07-29T12:29:43;7.68;;;6.97;;
81967;SDS011;71468;56.880;60.616;2023-07-29T12:32:12;8.20;;;7.30;;
81967;SDS011;71468;56.880;60.616;2023-07-29T12:34:40;9.55;;;6.97;;
81967;SDS011;71468;56.880;60.616;2023-07-29T12:37:06;6.97;;;6.22;;
81967;SDS011;71468;56.880;60.616;2023-07-29T12:39:34;8.27;;;6.95;;
81967;SDS011;71468;56.880;60.616;2023-07-29T12:42:02;9.80;;;7.93;;
81967;SDS011;71468;56.880;60.616;2023-07-29T12:44:31;8.70;;;7.10;;
81967;SDS011;71468;56.880;60.616;2023-07-29T12:47:00;8.98;;;8.07;;
81967;SDS011;71468;56.880;60.616;2023-07-29T12:49:27;10.32;;;7.22;;
81967;SDS011;71468;56.880;60.616;2023-07-29T12:51:58;9.73;;;7.57;;
81967;SDS011;71468;56.880;60.616;2023-07-29T12:54:25;8.60;;;7.40;;
81967;SDS011;71468;56.880;60.616;2023-07-29T12:56:52;8.25;;;7.28;;
81967;SDS011;71468;56.880;60.616;2023-07-29T12:59:19;9.73;;;7.43;;
81967;SDS011;71468;56.880;60.616;2023-07-29T13:01:45;9.90;;;7.95;;
81967;SDS011;71468;56.880;60.616;2023-07-29T13:04:12;8.27;;;7.00;;
81967;SDS011;71468;56.880;60.616;2023-07-29T13:06:38;8.20;;;7.20;;
81967;SDS011;71468;56.880;60.616;2023-07-29T13:09:05;11.68;;;6.88;;
81967;SDS011;71468;56.880;60.616;2023-07-29T13:11:31;9.88;;;6.88;;
81967;SDS011;71468;56.880;60.616;2023-07-29T13:13:59;8.15;;;7.35;;
81967;SDS011;71468;56.880;60.616;2023-07-29T13:16:27;9.32;;;7.25;;
81967;SDS011;71468;56.880;60.616;2023-07-29T13:18:54;8.32;;;7.32;;
81967;SDS011;71468;56.880;60.616;2023-07-29T13:21:21;8.70;;;6.95;;
81967;SDS011;71468;56.880;60.616;2023-07-29T13:23:48;8.05;;;7.25;;
81967;SDS011;71468;56.880;60.616;2023-07-29T13:26:14;8.57;;;7.18;;
81967;SDS011;71468;56.880;60.616;2023-07-29T13:28:41;8.93;;;7.38;;
81967;SDS011;71468;56.880;60.616;2023-07-29T13:31:07;8.05;;;7.22;;
81967;SDS011;71468;56.880;60.616;2023-07-29T13:33:34;8.00;;;7.22;;
81967;SDS011;71468;56.880;60.616;2023-07-29T13:36:00;8.82;;;7.78;;
81967;SDS011;71468;56.880;60.616;2023-07-29T13:38:30;10.32;;;8.18;;
81967;SDS011;71468;56.880;60.616;2023-07-29T13:40:57;8.80;;;7.30;;
81967;SDS011;71468;56.880;60.616;2023-07-29T13:43:24;10.52;;;7.70;;
81967;SDS011;71468;56.880;60.616;2023-07-29T13:45:51;8.70;;;7.75;;
81967;SDS011;71468;56.880;60.616;2023-07-29T13:48:18;9.25;;;8.15;;
81967;SDS011;71468;56.880;60.616;2023-07-29T13:50:45;8.82;;;7.40;;
81967;SDS011;71468;56.880;60.616;2023-07-29T13:53:12;8.38;;;7.40;;
81967;SDS011;71468;56.880;60.616;2023-07-29T13:55:38;8.25;;;6.45;;
81967;SDS011;71468;56.880;60.616;2023-07-29T13:58:05;9.13;;;7.25;;
81967;SDS011;71468;56.880;60.616;2023-07-29T14:00:32;8.60;;;7.32;;
81967;SDS011;71468;56.880;60.616;2023-07-29T14:02:59;8.15;;;6.82;;
81967;SDS011;71468;56.880;60.616;2023-07-29T14:05:25;8.95;;;7.18;;
81967;SDS011;71468;56.880;60.616;2023-07-29T14:07:52;8.45;;;7.20;;
81967;SDS011;71468;56.880;60.616;2023-07-29T14:10:18;9.30;;;7.35;;
81967;SDS011;71468;56.880;60.616;2023-07-29T14:12:46;12.57;;;8.73;;
81967;SDS011;71468;56.880;60.616;2023-07-29T14:15:12;8.52;;;7.38;;
81967;SDS011;71468;56.880;60.616;2023-07-29T14:17:39;9.98;;;8.20;;
81967;SDS011;71468;56.880;60.616;2023-07-29T14:20:06;11.55;;;8.48;;
81967;SDS011;71468;56.880;60.616;2023-07-29T14:22:33;12.88;;;8.52;;
81967;SDS011;71468;56.880;60.616;2023-07-29T14:24:59;11.82;;;8.43;;
81967;SDS011;71468;56.880;60.616;2023-07-29T14:27:26;9.63;;;7.88;;
81967;SDS011;71468;56.880;60.616;2023-07-29T14:29:53;8.85;;;7.97;;
81967;SDS011;71468;56.880;60.616;2023-07-29T14:32:19;9.70;;;7.63;;
81967;SDS011;71468;56.880;60.616;2023-07-29T14:34:46;9.98;;;7.65;;
81967;SDS011;71468;56.880;60.616;2023-07-29T14:37:12;10.93;;;8.13;;
81967;SDS011;71468;56.880;60.616;2023-07-29T14:39:38;8.38;;;7.45;;
81967;SDS011;71468;56.880;60.616;2023-07-29T14:42:05;8.48;;;7.47;;
81967;SDS011;71468;56.880;60.616;2023-07-29T14:44:32;9.43;;;7.13;;
81967;SDS011;71468;56.880;60.616;2023-07-29T14:46:59;9.95;;;8.10;;